首页
METAR-TAF:

METAR-TAF

机场 :

Mission Field

利文斯顿, 蒙大拿州, 美国

纬度: 45-41-58N, 经度: 110-26-54W, 海拔: 1419米

当前天气观测

该预报发布于34分钟前的00:53 UTC
风速4节,风向北转东北
温度 22°C
湿度 46%
气压 1014 hPa
能見度: 16.1公里
天空无云

METAR: KLVM 190053Z AUTO 03004KT 10SM CLR 22/10 A2994 RMK AO2 SLP105 T02220100

时间: 19:27 (01:27 UTC)

预报

该预报发布于2小时和3分钟前的23:24 UTC
预报有效从19日的 00点(UTC)到 19日的 24点(UTC)
风速7节,风向西北
能見度: 10公里
阴天层高于10000英尺, 积雨云.
附近有雷暴
从 19日的 0300点(UTC)
风速16节,风向西南
能見度: 10公里
少量云层高于7000英尺
散云层高于20000英尺
附近有阵雨
从 19日的 1900点(UTC)
风速15节,风向西,有时为25节阵风
能見度: 10公里
多云层高于4000英尺, 积雨云.
阴天层高于7000英尺
附近有雷暴

TAF: KLVM 182324Z 1900/1924 31007KT P6SM VCTS OVC100CB FM190300 23016KT P6SM VCSH FEW070 SCT200 FM191900 28015G25KT P6SM VCTS BKN040CB OVC070

超过4000个机场的气象观测和天气预报(METAR&TAF报告)。

可查询的气象台以黄色和红色小点在地图上表示。

将鼠标移到小点上方,可查看气象台名称。

然后点击查看天气观测和预报。

如需切换地图:点击带黑十字的绿色按钮放大地图;点击带横线的绿色按钮缩小地图;或者点击绿色箭头查看邻近地区的地图。


METAR-TAF: